首页
METAR-TAF:

METAR-TAF

机场 :

牛津, 北卡罗来纳州, 美国

Henderson-Oxford Airport

纬度: 36-21-42N, 经度: 078-31-45W, 海拔: 161米

当前天气观测

该预报发布于16分钟前的14:15 UTC
风速6节,风向南转南东
温度 15°C
湿度 48%
气压 1029 hPa
能見度: 16.1公里
天空无云

METAR: KHNZ 221415Z AUTO 16006KT 10SM CLR 15/04 A3038 RMK AO2 T01450042

时间: 10:31 (14:31 UTC)


TAF: 丢失

超过4000个机场的气象观测和天气预报(METAR&TAF报告)。

可查询的气象台以黄色和红色小点在地图上表示。

将鼠标移到小点上方,可查看气象台名称。

然后点击查看天气观测和预报。

如需切换地图:点击带黑十字的绿色按钮放大地图;点击带横线的绿色按钮缩小地图;或者点击绿色箭头查看邻近地区的地图。


METAR-TAF: